Thayne, Wyoming
Current Conditions -  °F | °C
As of 6:35 AM on Sunday 23 Nov 2014 (Local Time) from KAFO Reporting Station
Broken Clouds Broken Clouds  
Wind Chill: 19°   Ceiling: 3800
Heat Index: 27°   Visibility: 10mi
Dew Point: 21°   Wind: 7mph
Humidity: 80%   Direction: 350°N
Pressure: 29.97"   Gusts: NA
Location:  42.92°N, 111°W
Report Text: KAFO 231335Z AUTO 35006KT 10SM SCT023 SCT032 BKN038 M03/M06 A2997 RMK AO2
Loading
Personal Weather Stations






























Interactive Weather Map New forecast layout! Learn more

10-Day Weather Forecast

Advertisements
Track Severe Weather on mobile